Guide — WDE7328 — position and weather

sailwx.info

Track history (hours):
 
Tides and Currents Weather Stations Pressure Air Temp Water Temp Dewpoint Dewpoint Depression Visibility Wind Speed Wind Dir Waves Ship Positions

Guide

Owner: Crowley Marine Services, SEATTLE, WA. More information available from US FCC via Universal Licensing System and Coast Guard Vessel Documentation Center.

Last reported at 2016-Aug-24 01:32 UTC. Time now 2016-Aug-24 02:37 UTC.
Position N 47°18' W 122°26'.

Length 34 m; draft 5.1 m.

Type: Tug. MMSI: 366759530.

Date/timePositionNaut miles runAvg speedWind from/ knotsBaromVisibWave heightAir tempDewpointWater temp
2016-Aug-24 01:32N 47°18' W 122°26'0 0.0
2016-Aug-24 00:32N 47°18' W 122°26'1 1.3
2016-Aug-23 23:33N 47°17' W 122°25'2 1.6
2016-Aug-23 22:32N 47°15' W 122°26'0 0.0
2016-Aug-23 21:33N 47°15' W 122°26'0 0.0
2016-Aug-23 20:33N 47°15' W 122°26'0 0.0
2016-Aug-23 19:33N 47°15' W 122°26'0 0.0
2016-Aug-23 18:33N 47°15' W 122°26'0 0.0
2016-Aug-23 17:33N 47°15' W 122°26'0 0.0
2016-Aug-23 16:17N 47°15' W 122°26'0 0.0
2016-Aug-23 15:33N 47°15' W 122°26'0 0.0
2016-Aug-23 14:32N 47°15' W 122°26'2 2.0
2016-Aug-23 13:33N 47°16' W 122°23'2 1.7
2016-Aug-23 12:33N 47°17' W 122°25'2 1.7
2016-Aug-23 11:33N 47°15' W 122°26'0 0.0
2016-Aug-23 10:33N 47°15' W 122°26'0 0.0
2016-Aug-23 09:33N 47°15' W 122°26'0 0.0
2016-Aug-23 08:33N 47°15' W 122°26'0 0.0
2016-Aug-23 07:33N 47°15' W 122°26'0 0.0
2016-Aug-23 06:33N 47°15' W 122°26'0 0.0
2016-Aug-23 05:33N 47°15' W 122°26'0 0.0
2016-Aug-23 04:33N 47°15' W 122°26'0 0.0
2016-Aug-23 03:33N 47°15' W 122°26'0 0.0
2016-Aug-23 02:32N 47°15' W 122°26'2 1.9
2016-Aug-23 01:33N 47°16' W 122°23'1 1.2
2016-Aug-23 00:33N 47°17' W 122°25'1 1.5
2016-Aug-22 23:33N 47°16' W 122°23'1 1.4
2016-Aug-22 22:28N 47°17' W 122°25'1 0.6
2016-Aug-22 20:33N 47°17' W 122°26'0 0.2
2016-Aug-22 19:33N 47°17' W 122°26'2 1.8
2016-Aug-22 18:31N 47°15' W 122°26'0 0.0
2016-Aug-22 14:07N 47°15' W 122°26'1 0.7
2016-Aug-22 12:33N 47°16' W 122°25'1 0.8
2016-Aug-22 11:33N 47°17' W 122°26'2 1.6
2016-Aug-22 10:33N 47°15' W 122°26'0 0.0
2016-Aug-22 09:33N 47°15' W 122°26'0 0.0
2016-Aug-22 08:32N 47°15' W 122°26'0 0.0
2016-Aug-22 07:32N 47°15' W 122°26'0 0.0
2016-Aug-22 06:32N 47°15' W 122°26'0 0.0
2016-Aug-22 05:33N 47°15' W 122°26'0 0.0
2016-Aug-22 04:15N 47°15' W 122°26'0 0.0
2016-Aug-22 03:33N 47°15' W 122°26'0 0.0
2016-Aug-22 02:33N 47°15' W 122°26'0 0.0
2016-Aug-22 01:32N 47°15' W 122°26'0 0.0
2016-Aug-22 00:28N 47°15' W 122°26'0 0.0
2016-Aug-21 23:30N 47°15' W 122°26'0 0.0
2016-Aug-21 22:32N 47°15' W 122°26'0 0.0
2016-Aug-21 21:33N 47°15' W 122°26'0 0.0
2016-Aug-21 20:33N 47°15' W 122°26'0 0.0
2016-Aug-21 19:33N 47°15' W 122°26'0 0.0
2016-Aug-21 18:28N 47°15' W 122°26'0 0.0
2016-Aug-21 17:33N 47°15' W 122°26'0 0.0
2016-Aug-21 16:33N 47°15' W 122°26'0 0.0
2016-Aug-21 15:33N 47°15' W 122°26'0 0.0
2016-Aug-21 14:33N 47°15' W 122°26'0 0.0
2016-Aug-21 13:33N 47°15' W 122°26'0 0.0
2016-Aug-21 12:33N 47°15' W 122°26'1 1.2
2016-Aug-21 11:34N 47°17' W 122°26'2 2.0
2016-Aug-21 10:33N 47°16' W 122°23'2 2.5
2016-Aug-21 09:33N 47°17' W 122°26'2 2.0
2016-Aug-21 08:32N 47°15' W 122°26'0 0.0
2016-Aug-21 07:31N 47°15' W 122°26'0 0.0
2016-Aug-21 06:33N 47°15' W 122°26'0 0.0
2016-Aug-21 05:33N 47°15' W 122°26'0 0.0
2016-Aug-21 04:33N 47°15' W 122°26'0 0.0
2016-Aug-21 03:33N 47°15' W 122°26'0 0.0
2016-Aug-21 02:33N 47°15' W 122°26'0 0.0
2016-Aug-21 01:33N 47°15' W 122°26'0 0.0
2016-Aug-21 00:33N 47°15' W 122°26'0 0.0
2016-Aug-20 23:32N 47°15' W 122°26'2 1.8
2016-Aug-20 22:33N 47°17' W 122°25'1 1.2
2016-Aug-20 21:33N 47°16' W 122°26'1 0.7
2016-Aug-20 20:31N 47°15' W 122°26'0 0.0
2016-Aug-20 19:33N 47°15' W 122°26'0 0.0
2016-Aug-20 18:24N 47°15' W 122°26'0 0.0
2016-Aug-20 17:15N 47°15' W 122°26'0 0.0
2016-Aug-20 16:33N 47°15' W 122°26'0 0.0
2016-Aug-20 15:33N 47°15' W 122°26'0 0.0
2016-Aug-20 14:33N 47°15' W 122°26'0 0.0
2016-Aug-20 13:33N 47°15' W 122°26'0 0.0
2016-Aug-20 12:33N 47°15' W 122°26'0 0.0
2016-Aug-20 11:33N 47°15' W 122°26'2 1.6
2016-Aug-20 10:33N 47°16' W 122°24'1 0.5
2016-Aug-20 09:20N 47°16' W 122°24'1 0.7
2016-Aug-20 08:32N 47°16' W 122°23'1 0.4
2016-Aug-20 06:04N 47°16' W 122°24'1 1.4
2016-Aug-20 05:33N 47°16' W 122°25'1 0.7
2016-Aug-20 04:30N 47°16' W 122°24'4 4.5
2016-Aug-20 03:33N 47°20' W 122°27'8 7.8
2016-Aug-20 02:33N 47°27' W 122°23'9 8.7
2016-Aug-20 01:33N 47°36' W 122°24'2 2.3
2016-Aug-20 00:33N 47°35' W 122°21'4 3.8
2016-Aug-19 23:33N 47°33' W 122°26'1110.7
2016-Aug-19 22:33N 47°23' W 122°22'7 6.8
2016-Aug-19 21:33N 47°17' W 122°25'1 1.4
2016-Aug-19 20:33N 47°16' W 122°23'2 1.9
2016-Aug-19 19:32N 47°15' W 122°26'0 0.0
2016-Aug-19 18:32N 47°15' W 122°26'0 0.0
2016-Aug-19 16:33N 47°15' W 122°26'0 0.0
2016-Aug-19 15:33N 47°15' W 122°26'0 0.0
2016-Aug-19 14:33N 47°15' W 122°26'2 1.7
2016-Aug-19 13:25N 47°16' W 122°23'1 1.2
2016-Aug-19 12:17N 47°17' W 122°25'2 2.1
2016-Aug-19 11:32N 47°16' W 122°23'3 2.7
2016-Aug-19 10:33N 47°17' W 122°26'2 2.0
2016-Aug-19 09:33N 47°15' W 122°26'0 0.0
2016-Aug-19 08:25N 47°15' W 122°26'0 0.0
2016-Aug-19 06:32N 47°15' W 122°26'0 0.0
2016-Aug-19 04:33N 47°15' W 122°26'0 0.0
2016-Aug-19 03:28N 47°15' W 122°26'1 1.2
2016-Aug-19 02:33N 47°16' W 122°25'1 1.1
2016-Aug-19 01:24N 47°16' W 122°23'1 0.6
2016-Aug-19 00:27N 47°15' W 122°23'2 2.2
2016-Aug-18 23:31N 47°15' W 122°26'0 0.0
2016-Aug-18 22:33N 47°15' W 122°26'0 0.0
2016-Aug-18 21:33N 47°15' W 122°26'0 0.0
2016-Aug-18 20:33N 47°15' W 122°26'0 0.0
2016-Aug-18 19:26N 47°15' W 122°26'0 0.0
2016-Aug-18 18:33N 47°15' W 122°26'0 0.0
2016-Aug-18 17:33N 47°15' W 122°26'0 0.0
2016-Aug-18 16:33N 47°15' W 122°26'0 0.0
2016-Aug-18 15:33N 47°15' W 122°26'0 0.0
2016-Aug-18 14:33N 47°15' W 122°26'0 0.0
2016-Aug-18 13:33N 47°15' W 122°26'0 0.0
2016-Aug-18 12:32N 47°15' W 122°26'0 0.0
2016-Aug-18 11:33N 47°15' W 122°26'2 2.1
2016-Aug-18 10:33N 47°16' W 122°23'0 0.1
2016-Aug-18 09:33N 47°16' W 122°23'3 2.8
2016-Aug-18 08:32N 47°18' W 122°26'0 0.0
2016-Aug-18 07:34N 47°18' W 122°26'0 0.0
2016-Aug-18 06:08N 47°18' W 122°26'0 0.0
2016-Aug-18 05:33N 47°18' W 122°26'0 0.0
2016-Aug-18 04:33N 47°18' W 122°26'0 0.0
2016-Aug-18 03:33N 47°18' W 122°26'0 0.0
2016-Aug-18 02:34N 47°18' W 122°26'1 1.1
2016-Aug-18 01:34N 47°17' W 122°27'2 2.4
2016-Aug-18 00:32N 47°16' W 122°23'0 0.0
2016-Aug-17 23:33N 47°16' W 122°23'1 0.6
2016-Aug-17 22:33N 47°15' W 122°23'2 1.6
2016-Aug-17 21:33N 47°17' W 122°25'1 1.4
2016-Aug-17 20:33N 47°18' W 122°26'0 0.0
2016-Aug-17 19:33N 47°18' W 122°26'0 0.0
2016-Aug-17 18:33N 47°18' W 122°26'0 0.0
2016-Aug-17 17:30N 47°18' W 122°26'0 0.0
2016-Aug-17 16:33N 47°18' W 122°26'0 0.0
2016-Aug-17 15:32N 47°18' W 122°26'0 0.0
2016-Aug-17 14:33N 47°18' W 122°26'1 1.3
2016-Aug-17 13:33N 47°17' W 122°25'1 1.2
2016-Aug-17 12:33N 47°16' W 122°23'1 0.8
2016-Aug-17 11:33N 47°16' W 122°24'1 0.7
2016-Aug-17 10:33N 47°16' W 122°23'2 2.3
2016-Aug-17 09:33N 47°18' W 122°26'0 0.0
2016-Aug-17 08:32N 47°18' W 122°26'0 0.0
2016-Aug-17 07:33N 47°18' W 122°26'0 0.0
2016-Aug-17 06:33N 47°18' W 122°26'0 0.0
2016-Aug-17 05:33N 47°18' W 122°26'0 0.0
2016-Aug-17 04:30N 47°18' W 122°26'0 0.0
2016-Aug-17 03:33N 47°18' W 122°26'0 0.0
2016-Aug-17 02:33N 47°18' W 122°26'1 0.7
2016-Aug-17 01:33N 47°17' W 122°25'0 0.5
2016-Aug-17 00:33N 47°17' W 122°26'1 0.7
2016-Aug-16 23:33N 47°16' W 122°25'1 1.3
2016-Aug-16 22:33N 47°16' W 122°23'2 2.4
2016-Aug-16 21:34N 47°17' W 122°26'2 2.0
2016-Aug-16 20:33N 47°15' W 122°26'0 0.0
2016-Aug-16 18:14N 47°15' W 122°26'0 0.0
2016-Aug-16 17:33N 47°15' W 122°26'0 0.0
2016-Aug-16 15:14N 47°15' W 122°26'0 0.0
2016-Aug-16 14:33N 47°15' W 122°26'0 0.0
2016-Aug-16 13:33N 47°15' W 122°26'0 0.0
2016-Aug-16 12:33N 47°15' W 122°26'0 0.0
2016-Aug-16 11:33N 47°15' W 122°26'0 0.0
2016-Aug-16 10:33N 47°15' W 122°26'0 0.0
2016-Aug-16 09:33N 47°15' W 122°26'0 0.0
2016-Aug-16 08:33N 47°15' W 122°26'0 0.0
2016-Aug-16 07:33N 47°15' W 122°26'0 0.0
2016-Aug-16 06:33N 47°15' W 122°26'0 0.0
2016-Aug-16 04:33N 47°15' W 122°26'0 0.0
2016-Aug-16 03:33N 47°15' W 122°26'0 0.0
2016-Aug-16 02:33N 47°15' W 122°26'0 0.0
2016-Aug-16 01:33N 47°15' W 122°26'0 0.3
2016-Aug-16 00:33N 47°16' W 122°26'2 1.8
2016-Aug-15 23:33N 47°16' W 122°24'2 2.5
2016-Aug-15 22:33N 47°17' W 122°27'5 4.9
2016-Aug-15 21:33N 47°22' W 122°24'9 9.5
2016-Aug-15 20:34N 47°31' W 122°26'5 5.3
2016-Aug-15 19:34N 47°35' W 122°22'0 0.4
2016-Aug-15 18:33N 47°35' W 122°21'0 0.0
2016-Aug-15 17:33N 47°35' W 122°21'0 0.0
2016-Aug-15 16:33N 47°35' W 122°21'0 0.0
2016-Aug-15 15:33N 47°35' W 122°21'1 0.7
2016-Aug-15 14:34N 47°36' W 122°22'1010.2
2016-Aug-15 13:33N 47°26' W 122°23'9 7.1
2016-Aug-15 12:14N 47°16' W 122°25'1 1.9
2016-Aug-15 11:33N 47°17' W 122°26'2 2.2
2016-Aug-15 10:33N 47°15' W 122°26'0 0.0
2016-Aug-15 08:33N 47°15' W 122°26'0 0.0
2016-Aug-15 07:33N 47°15' W 122°26'0 0.0
2016-Aug-15 06:26N 47°15' W 122°26'0 0.0
2016-Aug-15 04:33N 47°15' W 122°26'0 0.0
2016-Aug-15 03:33N 47°15' W 122°26'0 0.0
2016-Aug-15 02:33N 47°15' W 122°26'1 1.1
2016-Aug-15 01:33N 47°16' W 122°25'1 1.1
2016-Aug-15 00:33N 47°16' W 122°27'1 1.2
2016-Aug-14 23:33N 47°15' W 122°26'0 0.0
2016-Aug-14 22:33N 47°15' W 122°26'0 0.0
2016-Aug-14 21:33N 47°15' W 122°26'0 0.0
2016-Aug-14 20:33N 47°15' W 122°26'0 0.0
2016-Aug-14 18:15N 47°15' W 122°26'0 0.0
2016-Aug-14 17:33N 47°15' W 122°26'0 0.0
2016-Aug-14 16:33N 47°15' W 122°26'0 0.0
2016-Aug-14 15:33N 47°15' W 122°26'0 0.0
2016-Aug-14 12:28N 47°15' W 122°26'0 0.0
2016-Aug-14 11:33N 47°15' W 122°26'0 0.0
2016-Aug-14 10:33N 47°15' W 122°26'0 0.0
2016-Aug-14 09:28N 47°15' W 122°26'0 0.0
2016-Aug-14 08:33N 47°15' W 122°26'0 0.0
2016-Aug-14 07:33N 47°15' W 122°26'2 0.7
2016-Aug-14 04:33N 47°16' W 122°23'1 1.4
2016-Aug-14 03:33N 47°16' W 122°25'2 1.6
2016-Aug-14 02:31N 47°18' W 122°26'0 0.0
2016-Aug-14 01:33N 47°18' W 122°26'  
Track history (hours):
 
Tides and Currents Weather Stations Pressure Air Temp Water Temp Dewpoint Dewpoint Depression Visibility Wind Speed Wind Dir Waves Ship Positions

Guide

Owner: Crowley Marine Services, SEATTLE, WA. More information available from US FCC via Universal Licensing System and Coast Guard Vessel Documentation Center.

Last reported at 2016-Aug-24 01:32 UTC. Time now 2016-Aug-24 02:37 UTC.
Position N 47°18' W 122°26'.

Length 34 m; draft 5.1 m.

Type: Tug. MMSI: 366759530.

Date/timePositionNaut miles runAvg speedWind from/ knotsBaromVisibWave heightAir tempDewpointWater temp
2016-Aug-24 01:32N 47°18' W 122°26'0 0.0
2016-Aug-24 00:32N 47°18' W 122°26'1 1.3
2016-Aug-23 23:33N 47°17' W 122°25'2 1.6
2016-Aug-23 22:32N 47°15' W 122°26'0 0.0
2016-Aug-23 21:33N 47°15' W 122°26'0 0.0
2016-Aug-23 20:33N 47°15' W 122°26'0 0.0
2016-Aug-23 19:33N 47°15' W 122°26'0 0.0
2016-Aug-23 18:33N 47°15' W 122°26'0 0.0
2016-Aug-23 17:33N 47°15' W 122°26'0 0.0
2016-Aug-23 16:17N 47°15' W 122°26'0 0.0
2016-Aug-23 15:33N 47°15' W 122°26'0 0.0
2016-Aug-23 14:32N 47°15' W 122°26'2 2.0
2016-Aug-23 13:33N 47°16' W 122°23'2 1.7
2016-Aug-23 12:33N 47°17' W 122°25'2 1.7
2016-Aug-23 11:33N 47°15' W 122°26'0 0.0
2016-Aug-23 10:33N 47°15' W 122°26'0 0.0
2016-Aug-23 09:33N 47°15' W 122°26'0 0.0
2016-Aug-23 08:33N 47°15' W 122°26'0 0.0
2016-Aug-23 07:33N 47°15' W 122°26'0 0.0
2016-Aug-23 06:33N 47°15' W 122°26'0 0.0
2016-Aug-23 05:33N 47°15' W 122°26'0 0.0
2016-Aug-23 04:33N 47°15' W 122°26'0 0.0
2016-Aug-23 03:33N 47°15' W 122°26'0 0.0
2016-Aug-23 02:32N 47°15' W 122°26'2 1.9
2016-Aug-23 01:33N 47°16' W 122°23'1 1.2
2016-Aug-23 00:33N 47°17' W 122°25'1 1.5
2016-Aug-22 23:33N 47°16' W 122°23'1 1.4
2016-Aug-22 22:28N 47°17' W 122°25'1 0.6
2016-Aug-22 20:33N 47°17' W 122°26'0 0.2
2016-Aug-22 19:33N 47°17' W 122°26'2 1.8
2016-Aug-22 18:31N 47°15' W 122°26'0 0.0
2016-Aug-22 14:07N 47°15' W 122°26'1 0.7
2016-Aug-22 12:33N 47°16' W 122°25'1 0.8
2016-Aug-22 11:33N 47°17' W 122°26'2 1.6
2016-Aug-22 10:33N 47°15' W 122°26'0 0.0
2016-Aug-22 09:33N 47°15' W 122°26'0 0.0
2016-Aug-22 08:32N 47°15' W 122°26'0 0.0
2016-Aug-22 07:32N 47°15' W 122°26'0 0.0
2016-Aug-22 06:32N 47°15' W 122°26'0 0.0
2016-Aug-22 05:33N 47°15' W 122°26'0 0.0
2016-Aug-22 04:15N 47°15' W 122°26'0 0.0
2016-Aug-22 03:33N 47°15' W 122°26'0 0.0
2016-Aug-22 02:33N 47°15' W 122°26'0 0.0
2016-Aug-22 01:32N 47°15' W 122°26'0 0.0
2016-Aug-22 00:28N 47°15' W 122°26'0 0.0
2016-Aug-21 23:30N 47°15' W 122°26'0 0.0
2016-Aug-21 22:32N 47°15' W 122°26'0 0.0
2016-Aug-21 21:33N 47°15' W 122°26'0 0.0
2016-Aug-21 20:33N 47°15' W 122°26'0 0.0
2016-Aug-21 19:33N 47°15' W 122°26'0 0.0
2016-Aug-21 18:28N 47°15' W 122°26'0 0.0
2016-Aug-21 17:33N 47°15' W 122°26'0 0.0
2016-Aug-21 16:33N 47°15' W 122°26'0 0.0
2016-Aug-21 15:33N 47°15' W 122°26'0 0.0
2016-Aug-21 14:33N 47°15' W 122°26'0 0.0
2016-Aug-21 13:33N 47°15' W 122°26'0 0.0
2016-Aug-21 12:33N 47°15' W 122°26'1 1.2
2016-Aug-21 11:34N 47°17' W 122°26'2 2.0
2016-Aug-21 10:33N 47°16' W 122°23'2 2.5
2016-Aug-21 09:33N 47°17' W 122°26'2 2.0
2016-Aug-21 08:32N 47°15' W 122°26'0 0.0
2016-Aug-21 07:31N 47°15' W 122°26'0 0.0
2016-Aug-21 06:33N 47°15' W 122°26'0 0.0
2016-Aug-21 05:33N 47°15' W 122°26'0 0.0
2016-Aug-21 04:33N 47°15' W 122°26'0 0.0
2016-Aug-21 03:33N 47°15' W 122°26'0 0.0
2016-Aug-21 02:33N 47°15' W 122°26'0 0.0
2016-Aug-21 01:33N 47°15' W 122°26'0 0.0
2016-Aug-21 00:33N 47°15' W 122°26'0 0.0
2016-Aug-20 23:32N 47°15' W 122°26'2 1.8
2016-Aug-20 22:33N 47°17' W 122°25'1 1.2
2016-Aug-20 21:33N 47°16' W 122°26'1 0.7
2016-Aug-20 20:31N 47°15' W 122°26'0 0.0
2016-Aug-20 19:33N 47°15' W 122°26'0 0.0
2016-Aug-20 18:24N 47°15' W 122°26'0 0.0
2016-Aug-20 17:15N 47°15' W 122°26'0 0.0
2016-Aug-20 16:33N 47°15' W 122°26'0 0.0
2016-Aug-20 15:33N 47°15' W 122°26'0 0.0
2016-Aug-20 14:33N 47°15' W 122°26'0 0.0
2016-Aug-20 13:33N 47°15' W 122°26'0 0.0
2016-Aug-20 12:33N 47°15' W 122°26'0 0.0
2016-Aug-20 11:33N 47°15' W 122°26'2 1.6
2016-Aug-20 10:33N 47°16' W 122°24'1 0.5
2016-Aug-20 09:20N 47°16' W 122°24'1 0.7
2016-Aug-20 08:32N 47°16' W 122°23'1 0.4
2016-Aug-20 06:04N 47°16' W 122°24'1 1.4
2016-Aug-20 05:33N 47°16' W 122°25'1 0.7
2016-Aug-20 04:30N 47°16' W 122°24'4 4.5
2016-Aug-20 03:33N 47°20' W 122°27'8 7.8
2016-Aug-20 02:33N 47°27' W 122°23'9 8.7
2016-Aug-20 01:33N 47°36' W 122°24'2 2.3
2016-Aug-20 00:33N 47°35' W 122°21'4 3.8
2016-Aug-19 23:33N 47°33' W 122°26'1110.7
2016-Aug-19 22:33N 47°23' W 122°22'7 6.8
2016-Aug-19 21:33N 47°17' W 122°25'1 1.4
2016-Aug-19 20:33N 47°16' W 122°23'2 1.9
2016-Aug-19 19:32N 47°15' W 122°26'0 0.0
2016-Aug-19 18:32N 47°15' W 122°26'0 0.0
2016-Aug-19 16:33N 47°15' W 122°26'0 0.0
2016-Aug-19 15:33N 47°15' W 122°26'0 0.0
2016-Aug-19 14:33N 47°15' W 122°26'2 1.7
2016-Aug-19 13:25N 47°16' W 122°23'1 1.2
2016-Aug-19 12:17N 47°17' W 122°25'2 2.1
2016-Aug-19 11:32N 47°16' W 122°23'3 2.7
2016-Aug-19 10:33N 47°17' W 122°26'2 2.0
2016-Aug-19 09:33N 47°15' W 122°26'0 0.0
2016-Aug-19 08:25N 47°15' W 122°26'0 0.0
2016-Aug-19 06:32N 47°15' W 122°26'0 0.0
2016-Aug-19 04:33N 47°15' W 122°26'0 0.0
2016-Aug-19 03:28N 47°15' W 122°26'1 1.2
2016-Aug-19 02:33N 47°16' W 122°25'1 1.1
2016-Aug-19 01:24N 47°16' W 122°23'1 0.6
2016-Aug-19 00:27N 47°15' W 122°23'2 2.2
2016-Aug-18 23:31N 47°15' W 122°26'0 0.0
2016-Aug-18 22:33N 47°15' W 122°26'0 0.0
2016-Aug-18 21:33N 47°15' W 122°26'0 0.0
2016-Aug-18 20:33N 47°15' W 122°26'0 0.0
2016-Aug-18 19:26N 47°15' W 122°26'0 0.0
2016-Aug-18 18:33N 47°15' W 122°26'0 0.0
2016-Aug-18 17:33N 47°15' W 122°26'0 0.0
2016-Aug-18 16:33N 47°15' W 122°26'0 0.0
2016-Aug-18 15:33N 47°15' W 122°26'0 0.0
2016-Aug-18 14:33N 47°15' W 122°26'0 0.0
2016-Aug-18 13:33N 47°15' W 122°26'0 0.0
2016-Aug-18 12:32N 47°15' W 122°26'0 0.0
2016-Aug-18 11:33N 47°15' W 122°26'2 2.1
2016-Aug-18 10:33N 47°16' W 122°23'0 0.1
2016-Aug-18 09:33N 47°16' W 122°23'3 2.8
2016-Aug-18 08:32N 47°18' W 122°26'0 0.0
2016-Aug-18 07:34N 47°18' W 122°26'0 0.0
2016-Aug-18 06:08N 47°18' W 122°26'0 0.0
2016-Aug-18 05:33N 47°18' W 122°26'0 0.0
2016-Aug-18 04:33N 47°18' W 122°26'0 0.0
2016-Aug-18 03:33N 47°18' W 122°26'0 0.0
2016-Aug-18 02:34N 47°18' W 122°26'1 1.1
2016-Aug-18 01:34N 47°17' W 122°27'2 2.4
2016-Aug-18 00:32N 47°16' W 122°23'0 0.0
2016-Aug-17 23:33N 47°16' W 122°23'1 0.6
2016-Aug-17 22:33N 47°15' W 122°23'2 1.6
2016-Aug-17 21:33N 47°17' W 122°25'1 1.4
2016-Aug-17 20:33N 47°18' W 122°26'0 0.0
2016-Aug-17 19:33N 47°18' W 122°26'0 0.0
2016-Aug-17 18:33N 47°18' W 122°26'0 0.0
2016-Aug-17 17:30N 47°18' W 122°26'0 0.0
2016-Aug-17 16:33N 47°18' W 122°26'0 0.0
2016-Aug-17 15:32N 47°18' W 122°26'0 0.0
2016-Aug-17 14:33N 47°18' W 122°26'1 1.3
2016-Aug-17 13:33N 47°17' W 122°25'1 1.2
2016-Aug-17 12:33N 47°16' W 122°23'1 0.8
2016-Aug-17 11:33N 47°16' W 122°24'1 0.7
2016-Aug-17 10:33N 47°16' W 122°23'2 2.3
2016-Aug-17 09:33N 47°18' W 122°26'0 0.0
2016-Aug-17 08:32N 47°18' W 122°26'0 0.0
2016-Aug-17 07:33N 47°18' W 122°26'0 0.0
2016-Aug-17 06:33N 47°18' W 122°26'0 0.0
2016-Aug-17 05:33N 47°18' W 122°26'0 0.0
2016-Aug-17 04:30N 47°18' W 122°26'0 0.0
2016-Aug-17 03:33N 47°18' W 122°26'0 0.0
2016-Aug-17 02:33N 47°18' W 122°26'1 0.7
2016-Aug-17 01:33N 47°17' W 122°25'0 0.5
2016-Aug-17 00:33N 47°17' W 122°26'1 0.7
2016-Aug-16 23:33N 47°16' W 122°25'1 1.3
2016-Aug-16 22:33N 47°16' W 122°23'2 2.4
2016-Aug-16 21:34N 47°17' W 122°26'2 2.0
2016-Aug-16 20:33N 47°15' W 122°26'0 0.0
2016-Aug-16 18:14N 47°15' W 122°26'0 0.0
2016-Aug-16 17:33N 47°15' W 122°26'0 0.0
2016-Aug-16 15:14N 47°15' W 122°26'0 0.0
2016-Aug-16 14:33N 47°15' W 122°26'0 0.0
2016-Aug-16 13:33N 47°15' W 122°26'0 0.0
2016-Aug-16 12:33N 47°15' W 122°26'0 0.0
2016-Aug-16 11:33N 47°15' W 122°26'0 0.0
2016-Aug-16 10:33N 47°15' W 122°26'0 0.0
2016-Aug-16 09:33N 47°15' W 122°26'0 0.0
2016-Aug-16 08:33N 47°15' W 122°26'0 0.0
2016-Aug-16 07:33N 47°15' W 122°26'0 0.0
2016-Aug-16 06:33N 47°15' W 122°26'0 0.0
2016-Aug-16 04:33N 47°15' W 122°26'0 0.0
2016-Aug-16 03:33N 47°15' W 122°26'0 0.0
2016-Aug-16 02:33N 47°15' W 122°26'0 0.0
2016-Aug-16 01:33N 47°15' W 122°26'0 0.3
2016-Aug-16 00:33N 47°16' W 122°26'2 1.8
2016-Aug-15 23:33N 47°16' W 122°24'2 2.5
2016-Aug-15 22:33N 47°17' W 122°27'5 4.9
2016-Aug-15 21:33N 47°22' W 122°24'9 9.5
2016-Aug-15 20:34N 47°31' W 122°26'5 5.3
2016-Aug-15 19:34N 47°35' W 122°22'0 0.4
2016-Aug-15 18:33N 47°35' W 122°21'0 0.0
2016-Aug-15 17:33N 47°35' W 122°21'0 0.0
2016-Aug-15 16:33N 47°35' W 122°21'0 0.0
2016-Aug-15 15:33N 47°35' W 122°21'1 0.7
2016-Aug-15 14:34N 47°36' W 122°22'1010.2
2016-Aug-15 13:33N 47°26' W 122°23'9 7.1
2016-Aug-15 12:14N 47°16' W 122°25'1 1.9
2016-Aug-15 11:33N 47°17' W 122°26'2 2.2
2016-Aug-15 10:33N 47°15' W 122°26'0 0.0
2016-Aug-15 08:33N 47°15' W 122°26'0 0.0
2016-Aug-15 07:33N 47°15' W 122°26'0 0.0
2016-Aug-15 06:26N 47°15' W 122°26'0 0.0
2016-Aug-15 04:33N 47°15' W 122°26'0 0.0
2016-Aug-15 03:33N 47°15' W 122°26'0 0.0
2016-Aug-15 02:33N 47°15' W 122°26'1 1.1
2016-Aug-15 01:33N 47°16' W 122°25'1 1.1
2016-Aug-15 00:33N 47°16' W 122°27'1 1.2
2016-Aug-14 23:33N 47°15' W 122°26'0 0.0
2016-Aug-14 22:33N 47°15' W 122°26'0 0.0
2016-Aug-14 21:33N 47°15' W 122°26'0 0.0
2016-Aug-14 20:33N 47°15' W 122°26'0 0.0
2016-Aug-14 18:15N 47°15' W 122°26'0 0.0
2016-Aug-14 17:33N 47°15' W 122°26'0 0.0
2016-Aug-14 16:33N 47°15' W 122°26'0 0.0
2016-Aug-14 15:33N 47°15' W 122°26'0 0.0
2016-Aug-14 12:28N 47°15' W 122°26'0 0.0
2016-Aug-14 11:33N 47°15' W 122°26'0 0.0
2016-Aug-14 10:33N 47°15' W 122°26'0 0.0
2016-Aug-14 09:28N 47°15' W 122°26'0 0.0
2016-Aug-14 08:33N 47°15' W 122°26'0 0.0
2016-Aug-14 07:33N 47°15' W 122°26'2 0.7
2016-Aug-14 04:33N 47°16' W 122°23'1 1.4
2016-Aug-14 03:33N 47°16' W 122°25'2 1.6
2016-Aug-14 02:31N 47°18' W 122°26'0 0.0
2016-Aug-14 01:33N 47°18' W 122°26'  

Dump ship's entire track history